Terminal Aerodrome Forecast
Issued by NWS Cleveland, OH

Home | Current Version | Previous Version | Graphics & Text | Print | Product List | Glossary On
Versions: 1 2 3 4 5 6 7 8 9 10 11 12 13 14 15 16 17 18 19 20
000
FTUS41 KCLE 182300
TAFYNG
TAF
KYNG 182328Z 1900/1924 02009KT P6SM BKN200
     FM191400 10012KT P6SM BKN120
     FM191900 11014G22KT P6SM -SHRA BKN060 OVC100
     FM192100 12015G25KT 5SM -SHRA BKN035 OVC060
     FM192300 12015G25KT 4SM -SHRA BR BKN010 OVC025=

USA.gov is the U.S. government's official web portal to all federal, state and local government web resources and services.